Hope Hull, Alabama
Current Conditions -  °F | °C
As of 7:53 PM on Wednesday 22 Oct 2014 (Local Time) from KMGM Reporting Station
Clear Clear  
Wind Chill: 58°   Ceiling: Unl
Heat Index: 58°   Visibility: 10mi
Dew Point: 45°   Wind: 6mph
Humidity: 62%   Direction: 330°NNW
Pressure: 30.1"   Gusts: NA
Location:  32.27°N, 86.36°W
Report Text: KMGM 230053Z 33005KT 10SM CLR 14/07 A3010 RMK AO2 SLP193 T01440072
Loading
Personal Weather Stations






























Interactive Weather Map
Tropical Storm Tracking
New forecast layout! Learn more

10-Day Weather Forecast

Advertisements
Track Severe Weather on mobile